• Join FlightAware (Why Join?)
  • Login
  • US Flag 
07:57AM EDT


 

Airport Tracker/Info


-or-


 

Live Flight TrackerFlight Track Log ✈ SWA1086 ✈ 01-Nov-2013 ✈ KDEN - KPHL

Flight Track Log - Related Links

Times and Time Zones

All times are in EDT time to prevent confusion due to time zone crossing. See the SWA1086 flight status page for this flight to view local times or setup timezone preferences in your user account.

Time Position Orientation Groundspeed Altitude Reporting Facility
EDT Latitude Longitude Course Direction KTS MPH feet Rate Location/Type
08:56PM 39.9500 -104.6500 27° Northeast 196 226 8,600  Level Denver TRACON
08:57PM 40.0000 -104.5833 46° Northeast 253 291 11,300 2,400 Climbing Denver TRACON
08:59PM 39.9694 -104.3003 98° East 410 472 16,800 2,460 Climbing Denver Center
09:01PM 39.9909 -103.6386 84° East  Level Estimated
09:01PM 39.9692 -104.1328 90° East 431 496 19,800  Level Denver Center
09:02PM 39.9892 -103.9756 81° East 443 510 21,900 2,220 Climbing Denver Center
09:03PM 40.0114 -103.7906 81° East 476 548 24,400 1,980 Climbing Denver Center
09:04PM 40.0303 -103.6411 81° East 478 550 26,000 2,160 Climbing Denver Center
09:05PM 40.0575 -103.4278 80° East 497 572 28,900 2,580 Climbing Denver Center
09:06PM 40.0811 -103.2492 80° East 499 574 31,300 2,160 Climbing Denver Center
09:07PM 40.1011 -103.0719 82° East 495 570 33,400 1,620 Climbing Denver Center
09:08PM 40.1242 -102.8953 80° East 495 570 34,700 1,260 Climbing Denver Center
09:09PM 40.1447 -102.7139 82° East 504 580 36,100 1,200 Climbing Denver Center
09:10PM 40.1669 -102.5294 81° East 506 582 37,300 1,260 Climbing Denver Center
09:11PM 40.1914 -102.3250 81° East 511 588 38,700 1,440 Climbing Denver Center
09:12PM 40.2092 -102.1506 82° East 508 585 40,300 1,080 Climbing Denver Center
09:13PM 40.2336 -101.9508 81° East 500 575 41,000 300 Climbing Denver Center
09:14PM 40.2525 -101.7758 82° East 506 582 41,000  Level Denver Center
09:15PM 40.2742 -101.5733 82° East 506 582 41,000  Level Denver Center
09:16PM 40.2942 -101.3989 81° East 508 585 41,000  Level Denver Center
09:17PM 40.3144 -101.1950 83° East 507 583 41,000  Level Denver Center
09:18PM 40.3322 -101.0214 82° East 507 583 41,000  Level Denver Center
09:20PM 40.3623 -100.7671 81° East  Level FlightAware Approximate
09:20PM 40.3708 -100.6469 81° East 503 579 41,000  Level Denver Center
09:21PM 40.3908 -100.4464 82° East 501 577 41,000  Level Denver Center
09:22PM 40.4072 -100.2756 83° East 498 573 41,000  Level Denver Center
09:23PM 40.4272 -100.0739 83° East 501 577 41,000  Level Denver Center
09:24PM 40.4439 -99.8997 83° East 503 579 41,000  Level Denver Center
09:25PM 40.4619 -99.7011 83° East 508 585 41,000  Level Denver Center
09:26PM 40.4789 -99.5158 83° East 511 588 41,000  Level Denver Center
09:27PM 40.4956 -99.3319 83° East 509 586 41,000  Level Denver Center
09:28PM 40.5117 -99.1494 83° East 506 582 41,000  Level Denver Center
09:29PM 40.5239 -99.0031 84° East 509 586 41,000  Level Minneapolis Center
09:30PM 40.5397 -98.8178 84° East 512 589 41,000  Level Minneapolis Center
09:31PM 40.5572 -98.5947 84° East 514 592 41,000  Level Minneapolis Center
09:32PM 40.5728 -98.4086 84° East 516 594 41,000  Level Minneapolis Center
09:33PM 40.5875 -98.2219 84° East 517 595 41,000  Level Minneapolis Center
09:34PM 40.6019 -98.0350 84° East 517 595 41,000  Level Minneapolis Center
09:35PM 40.6150 -97.8497 85° East 512 589 41,000  Level Minneapolis Center
09:36PM 40.6300 -97.6642 84° East 511 588 41,000  Level Minneapolis Center
09:37PM 40.6422 -97.4783 85° East 511 588 41,000  Level Minneapolis Center
09:38PM 40.6572 -97.2644 85° East 514 592 41,000  Level Minneapolis Center
09:39PM 40.6711 -97.0783 84° East 514 592 41,000  Level Minneapolis Center
09:40PM 40.6842 -96.8908 85° East 516 594 41,000  Level Minneapolis Center
09:41PM 40.6958 -96.7036 85° East 515 593 41,000  Level Minneapolis Center
09:42PM 40.7089 -96.5172 85° East 514 592 41,000  Level Minneapolis Center
09:43PM 40.7200 -96.3306 85° East 514 592 41,000  Level Minneapolis Center
09:44PM 40.7311 -96.1489 85° East 507 583 41,000  Level Minneapolis Center
09:46PM 40.7447 -95.9281 85° East 507 583 41,000  Level Minneapolis Center
09:47PM 40.7556 -95.7450 85° East 506 582 41,000  Level Minneapolis Center
09:48PM 40.7639 -95.5639 86° East 502 578 41,000  Level Minneapolis Center
09:49PM 40.7758 -95.3769 85° East 512 589 41,000  Level Minneapolis Center
09:50PM 40.7861 -95.1933 86° East 508 585 41,000  Level Minneapolis Center
09:51PM 40.7942 -95.0097 87° East 505 581 41,000  Level Minneapolis Center
09:52PM 40.8039 -94.8264 86° East 504 580 41,000  Level Minneapolis Center
09:53PM 40.8128 -94.6456 86° East 499 574 41,000  Level Minneapolis Center
09:55PM 40.8303 -94.2608 86° East 498 573 41,000  Level Minneapolis Center
09:56PM 40.8350 -94.0783 88° East 501 577 41,000  Level Minneapolis Center
09:57PM 40.8442 -93.8933 86° East 505 581 41,000  Level Minneapolis Center
09:58PM 40.8511 -93.7081 87° East 507 583 41,000  Level Minneapolis Center
09:59PM 40.8608 -93.4839 87° East 511 588 41,000  Level Minneapolis Center
10:00PM 40.8675 -93.2950 87° East 515 593 41,000  Level Minneapolis Center
10:01PM 40.8733 -93.1444 87° East 510 587 41,000  Level Chicago Center
10:02PM 40.8806 -92.9581 87° East 507 583 41,000  Level Chicago Center
10:03PM 40.8858 -92.7708 88° East 511 588 41,000  Level Chicago Center
10:04PM 40.8919 -92.5844 87° East 509 586 41,000  Level Chicago Center
10:05PM 40.8967 -92.3950 88° East 514 592 41,000  Level Chicago Center
10:06PM 40.9014 -92.2064 88° East 515 593 41,000  Level Chicago Center
10:08PM 40.9117 -91.7892 88° East 519 597 41,000  Level Minneapolis Center
10:09PM 40.9161 -91.6003 88° East 519 597 41,000  Level Chicago Center
10:10PM 40.9194 -91.4106 89° East 518 596 41,000  Level Chicago Center
10:11PM 40.9239 -91.2183 88° East 522 601 41,000  Level Chicago Center
10:12PM 40.9261 -91.0269 89° East 522 601 41,000  Level Chicago Center
10:13PM 40.9278 -90.8350 89° East 522 601 41,000  Level Chicago Center
10:14PM 40.9311 -90.6439 89° East 520 598 41,000  Level Chicago Center
10:15PM 40.9336 -90.4511 89° East 522 601 41,000  Level Chicago Center
10:16PM 40.9361 -90.2419 89° East 521 600 41,000  Level Chicago Center
10:17PM 40.9386 -90.0519 89° East 522 601 41,000  Level Chicago Center
10:18PM 40.9400 -89.8597 89° East 525 604 41,000  Level Chicago Center
10:19PM 40.9397 -89.6694 90° East 522 601 41,000  Level Chicago Center
10:20PM 40.9414 -89.4806 89° East 522 601 41,000  Level Chicago Center
10:21PM 40.9422 -89.2858 90° East 526 605 41,000  Level Chicago Center
10:22PM 40.9417 -89.0942 90° East 522 601 41,000  Level Chicago Center
10:23PM 40.9408 -88.9033 90° East 520 598 41,000  Level Chicago Center
10:24PM 40.9389 -88.6794 91° East 520 598 41,000  Level Chicago Center
10:25PM 40.9383 -88.4894 90° East 523 602 41,000  Level Chicago Center
10:26PM 40.9372 -88.3006 90° East 520 598 41,000  Level Chicago Center
10:27PM 40.9356 -88.1119 91° East 521 600 41,000  Level Chicago Center
10:28PM 40.9347 -87.9222 90° East 523 602 41,000  Level Chicago Center
10:29PM 40.9319 -87.6964 91° East 520 598 41,000  Level Chicago Center
10:30PM 40.9297 -87.5086 91° East 517 595 41,000  Level Chicago Center
10:31PM 40.9269 -87.3225 91° East 510 587 41,000  Level Chicago Center
10:32PM 40.9236 -87.1356 91° East 513 590 41,000  Level Chicago Center
10:33PM 40.9211 -86.9481 91° East 514 592 41,000  Level Chicago Center
10:34PM 40.9161 -86.7619 92° East 512 589 41,000  Level Chicago Center
10:35PM 40.9122 -86.5531 91° East 515 593 41,000  Level Chicago Center
10:36PM 40.9083 -86.3661 92° East 513 590 41,000  Level Chicago Center
10:37PM 40.9028 -86.1789 92° East 513 590 41,000  Level Chicago Center
10:38PM 40.8969 -85.9911 92° East 515 593 41,000  Level Chicago Center
10:39PM 40.8914 -85.8044 92° East 513 590 41,000  Level Chicago Center
10:40PM 40.8867 -85.6175 92° East 513 590 41,000  Level Chicago Center
10:41PM 40.8803 -85.4317 93° East 512 589 41,000  Level Chicago Center
10:42PM 40.8719 -85.2050 93° East 520 598 41,000  Level Chicago Center
10:43PM 40.8653 -85.0192 93° East 516 594 41,000  Level Chicago Center
10:45PM 40.8558 -84.7614 93° East 507 583 41,000  Level Chicago Center
10:46PM 40.8486 -84.5772 93° East 505 581 41,000  Level Chicago Center
10:47PM 40.8414 -84.3931 93° East 505 581 41,000  Level Chicago Center
10:48PM 40.8331 -84.2083 93° East 506 582 41,000  Level Chicago Center
10:49PM 40.8253 -84.0256 93° East 503 579 41,000  Level Chicago Center
10:50PM 40.8158 -83.8186 93° East 505 581 41,000  Level Indianapolis Center
10:51PM 40.8069 -83.6339 94° East 504 580 41,000  Level Indianapolis Center
10:52PM 40.7978 -83.4383 93° East 505 581 41,000  Level Indianapolis Center
10:53PM 40.7883 -83.2533 94° East 504 580 41,000  Level Indianapolis Center
10:54PM 40.7792 -83.0681 94° East 504 580 41,000  Level Indianapolis Center
10:55PM 40.7669 -82.8508 94° East 505 581 41,000  Level Indianapolis Center
10:56PM 40.7569 -82.6653 94° East 505 581 41,000  Level Indianapolis Center
10:57PM 40.7450 -82.4783 95° East 507 583 41,000  Level Indianapolis Center
10:58PM 40.7344 -82.2914 94° East 510 587 41,000  Level Indianapolis Center
10:59PM 40.7222 -82.1039 95° East 509 586 41,000  Level Cleveland Center
11:00PM 40.7106 -81.9172 95° East 509 586 41,000  Level Cleveland Center
11:01PM 40.6992 -81.7300 95° East 512 589 41,000  Level Cleveland Center
11:02PM 40.6869 -81.5425 95° East 512 589 41,000  Level Cleveland Center
11:03PM 40.6744 -81.3542 95° East 514 592 41,000  Level Cleveland Center
11:04PM 40.6614 -81.1658 95° East 513 590 41,000  Level Cleveland Center
11:05PM 40.6456 -80.9661 96° East 513 590 41,000  Level Cleveland Center
11:06PM 40.6303 -80.7783 96° East 515 593 41,000  Level Cleveland Center
11:07PM 40.6150 -80.6006 96° East 512 589 41,000  Level Cleveland Center
11:08PM 40.5981 -80.4131 97° East 512 589 41,000  Level Cleveland Center
11:09PM 40.5825 -80.2325 96° East 515 593 41,000  Level Cleveland Center
11:10PM 40.5644 -80.0486 97° East 512 589 41,000  Level Cleveland Center
11:11PM 40.5450 -79.8369 97° East 512 589 41,000  Level Cleveland Center
11:12PM 40.5272 -79.6506 97° East 513 590 41,000  Level Cleveland Center
11:13PM 40.5089 -79.4642 97° East 513 590 41,000  Level Cleveland Center
11:14PM 40.4908 -79.2750 97° East 514 592 41,000  Level Cleveland Center
11:15PM 40.4725 -79.0908 97° East 516 594 41,000  Level Cleveland Center
11:16PM 40.4531 -78.9050 98° East 518 596 41,000  Level Cleveland Center
11:17PM 40.4333 -78.7186 98° East 521 600 41,000  Level Cleveland Center
11:19PM 40.4139 -78.5317 98° East 522 601 41,000  Level Cleveland Center
11:20PM 40.3944 -78.3461 98° East 521 600 41,000 -180 Level Cleveland Center
11:21PM 40.3703 -78.1228 98° East 522 601 40,700 -600 Descending Cleveland Center
11:22PM 40.3497 -77.9369 98° East 522 601 39,800 -900 Descending Cleveland Center
11:22PM 40.3344 -77.8211 100° East 524 603 39,200 -900 Descending New York Center
11:23PM 40.3144 -77.6311 98° East 524 603 38,300 -1,200 Descending New York Center
11:24PM 40.2919 -77.4408 99° East 529 609 36,900 -1,920 Descending New York Center
11:25PM 40.2650 -77.2506 100° East 529 609 34,500 -2,100 Descending New York Center
11:26PM 40.2461 -77.0583 97° East 529 609 32,800 -2,820 Descending New York Center
11:27PM 40.2208 -76.8631 100° East 529 609 28,900 -3,660 Descending New York Center
11:28PM 40.1978 -76.6600 98° East 529 609 25,500 -3,120 Descending New York Center
11:29PM 40.1753 -76.4814 99° East 517 595 22,700 -2,640 Descending New York Center
11:30PM 40.1556 -76.3303 100° East 490 564 20,300 -2,820 Descending New York Center
11:31PM 40.1347 -76.1494 99° East 464 534 17,100 -3,000 Descending New York Center
11:32PM 40.1181 -76.0097 99° East 440 506 14,300 -2,640 Descending New York Center
11:33PM 40.0969 -75.8725 101° East 404 465 11,900 -2,160 Descending New York Center
11:34PM 40.0800 -75.7356 99° East 354 407 10,000 -960 Descending New York Center
11:35PM 40.0700 -75.6236 97° East 349 402 10,000  Level New York Center
11:36PM 40.0669 -75.4958 92° East 330 380 10,000 -600 Level New York Center
11:37PM 40.0625 -75.3978 93° East 306 352 8,800 -1,500 Descending New York Center
11:38PM 40.0586 -75.2811 92° East 293 337 7,000 -1,380 Descending New York Center
11:39PM 40.0261 -75.2003 118° Southeast 274 315 6,100 -1,020 Descending New York Center
11:40PM 39.9778 -75.1539 144° Southeast 225 259 5,000 -1,080 Descending New York Center
11:41PM 39.9933 -75.0761 75° East 191 220 4,000 -540 Descending New York Center
11:42PM 39.9786 -75.0239 110° East 156 180 4,000 -660 Level New York Center
11:43PM 39.9283 -75.0261 182° South 142 163 2,700 -900 Descending New York Center
11:44PM 39.9078 -75.0736 241° Southwest 119 137 2,200 -600 Descending New York Center
11:46PM 39.9000 -75.1333 260° West 143 165 1,400 -660 Descending Philadelphia TRACON
11:46PM 39.8833 -75.1833 247° West 119 137 800 -720 Descending Philadelphia TRACON
11:48PM 39.8667 -75.2333 247° West  Level FlightAware Approximate
11:55PM 39.8722 -75.2409 247° West  Level Estimated
11:56PM 39.8722 -75.2409 247° West  Level Estimated